Airfield :
LOGIN :

Register | Disclaimer

   EN    FR    IT 

 










Legend :    VFR   Marginal VFR   IFR   Intensive IFR   Very Intensive IFR
Visi :
Ceiling :
>= 8 km
>= 3000ft
5 to 8 km
1000 to 3000 ft
1500m to 5 km
500 to 1000 ft
800 to 1500m
200 to 500 ft
< 800m
< 200 ft
Symbols :   Thunderstorms  Fog  Heavy snow  Heavy precipitations  Wind > 20 kt
SIGMETs :     Misc.  Thunderstorms  Icing  Turbulence  Mountain Waves  Volcanic Ashes






- Airport Elevation : 1910 ft
- IATA code : RDZ


LFCR - Rodez

CURRENT METAR :
  • 290600Z AUTO 31005KT 9999 BKN006 OVC010 04/04 Q1018 TEMPO 0600 FG VV///

EXPIRED METARs :
  • 290530Z AUTO 30008KT 9999 BKN008 04/03 Q1017 TEMPO 0600 FG VV///
  • 290500Z AUTO 29008KT 9999 BKN007 OVC014 04/03 Q1017 TEMPO 3000 BR BECMG SCT010 BKN017
  • 290430Z AUTO 30008KT 9999 OVC010 04/04 Q1017 TEMPO 3000 BR BECMG SCT010 BKN017
  • 290400Z AUTO 30008KT 9999 FEW007 BKN013 OVC035 04/04 Q1017 TEMPO BKN005

TAF TAF LFCR
Valid from the 29 at 06:00 until the 30 at 06:00 UTC


290500Z 2906/3006 30007KT 9999 BKN008
PROB30
TEMPO 2906/2910 0600 FG VV///
BECMG 2910/2912 BKN012
BECMG 2912/2914 BKN017
BECMG 2919/2921 3000 BR BKN005
PROB40
TEMPO 2922/3006 0700 FG VV///
BECMG 3002/3004 VRB02KT



MET'MAP, your aeronautical weather chart ! - Copyright ORBIFLY December 2007 - Disclaimer

ORBIFLY MET'MAP TEAM :

Programming & Development : Alexandra Zaïnal
Original concept : Baudouin d'Aumeries
Technical & hardware support : Manuel Goepfert
Assistance : Marc-Olivier Méhu




SOURCES & CREDITS :

   NOAA